Time;durP1;ratioP1;P1;durP2;ratioP2;P2;SDS_P1;SDS_P2;PMS_P1;PMS_P2;Temp;Humidity;BMP_temperature;BMP_pressure;BME280_temperature;BME280_humidity;BME280_pressure;Samples;Min_cycle;Max_cycle;Signal;HPM_P1;HPM_P2
2022/03/08 00:00:29;;;;;;;26.90;17.63;;;-0.60;88.20;;;;;;5055923;23;20230;-57
2022/03/08 00:02:57;;;;;;;24.93;17.27;;;-0.70;88.60;;;;;;5043303;28;20566;-57
2022/03/08 00:05:24;;;;;;;24.50;17.53;;;-0.80;88.50;;;;;;5052074;28;20580;-57
2022/03/08 00:07:52;;;;;;;24.80;16.87;;;-0.90;89.10;;;;;;5051785;28;20615;-61
2022/03/08 00:10:19;;;;;;;22.10;15.83;;;-1.00;89.30;;;;;;5051724;28;20233;-57
2022/03/08 00:12:47;;;;;;;22.37;16.43;;;-1.20;90.10;;;;;;5051757;28;20217;-57
2022/03/08 00:15:17;;;;;;;23.70;16.37;;;-1.30;90.20;;;;;;5052106;28;20209;-58
2022/03/08 00:17:45;;;;;;;22.47;16.17;;;-1.40;90.60;;;;;;5051682;28;20677;-58
2022/03/08 00:20:13;;;;;;;23.37;15.67;;;-1.60;90.80;;;;;;5051881;28;20316;-58
2022/03/08 00:22:40;;;;;;;23.80;17.00;;;-1.50;90.70;;;;;;5052122;28;20233;-59
2022/03/08 00:25:09;;;;;;;24.63;15.97;;;-1.50;90.70;;;;;;5052035;28;20202;-58
2022/03/08 00:27:36;;;;;;;22.37;15.57;;;-1.50;90.70;;;;;;5051811;28;20205;-58
2022/03/08 00:30:03;;;;;;;21.87;15.87;;;-1.50;90.60;;;;;;5051469;28;20229;-58
2022/03/08 00:32:30;;;;;;;25.33;15.87;;;-1.50;90.60;;;;;;5051367;28;20255;-58
2022/03/08 00:34:58;;;;;;;23.97;17.17;;;-1.40;90.70;;;;;;5052616;28;20233;-59
2022/03/08 00:37:25;;;;;;;20.67;15.43;;;-1.40;90.60;;;;;;5055332;28;20266;-58
2022/03/08 00:39:51;;;;;;;24.80;17.40;;;-1.30;90.60;;;;;;5055591;28;20286;-58
2022/03/08 00:42:18;;;;;;;23.17;16.57;;;-1.30;90.40;;;;;;5055464;28;20206;-58
2022/03/08 00:44:45;;;;;;;24.63;16.67;;;-1.30;90.40;;;;;;5055436;28;20255;-58
2022/03/08 00:47:12;;;;;;;25.57;17.00;;;-1.20;90.30;;;;;;5055220;28;20715;-58
2022/03/08 00:49:40;;;;;;;26.43;18.23;;;-1.30;90.50;;;;;;5055114;28;20229;-58
2022/03/08 00:52:09;;;;;;;25.00;17.10;;;-1.30;90.60;;;;;;5055229;28;20202;-58
2022/03/08 00:54:37;;;;;;;23.57;17.07;;;-1.30;90.60;;;;;;5054733;28;20283;-59
2022/03/08 00:57:04;;;;;;;22.10;15.97;;;-1.20;90.60;;;;;;5055041;28;20213;-59
2022/03/08 00:59:31;;;;;;;25.47;17.10;;;-1.10;90.50;;;;;;5054644;28;20210;-58
2022/03/08 01:01:58;;;;;;;21.13;15.57;;;-1.10;90.40;;;;;;5055055;28;20260;-59
2022/03/08 01:04:24;;;;;;;26.50;18.33;;;-1.10;90.50;;;;;;5054666;28;20703;-59
2022/03/08 01:06:51;;;;;;;24.00;17.27;;;-1.10;90.50;;;;;;5054886;28;20209;-59
2022/03/08 01:09:19;;;;;;;24.17;16.47;;;-1.00;90.50;;;;;;5055136;28;20210;-59
2022/03/08 01:11:46;;;;;;;23.63;16.27;;;-1.00;90.40;;;;;;5055241;28;20209;-58
2022/03/08 01:14:13;;;;;;;23.70;15.63;;;-1.00;90.40;;;;;;5054677;28;20225;-58
2022/03/08 01:16:39;;;;;;;21.90;16.47;;;-1.00;90.30;;;;;;5054612;28;20209;-58
2022/03/08 01:19:07;;;;;;;21.50;14.80;;;-1.00;90.30;;;;;;5055071;28;20206;-59
2022/03/08 01:21:36;;;;;;;20.13;14.27;;;-1.00;90.40;;;;;;5054854;28;20228;-58
2022/03/08 01:24:03;;;;;;;24.03;15.90;;;-1.00;90.40;;;;;;5054703;28;20644;-58
2022/03/08 01:26:31;;;;;;;22.27;15.00;;;-1.10;90.50;;;;;;5054747;28;20523;-59
2022/03/08 01:28:58;;;;;;;22.20;15.40;;;-1.10;90.70;;;;;;5054704;28;20210;-59
2022/03/08 01:31:25;;;;;;;24.30;16.07;;;-1.10;90.80;;;;;;5054721;28;20225;-58
2022/03/08 01:33:54;;;;;;;23.03;17.07;;;-1.30;90.80;;;;;;5054463;28;20229;-58
2022/03/08 01:36:21;;;;;;;23.77;16.90;;;-1.30;90.80;;;;;;5054719;28;20292;-59
2022/03/08 01:38:48;;;;;;;20.27;14.67;;;-1.20;90.80;;;;;;5054671;28;20205;-58
2022/03/08 01:41:15;;;;;;;21.07;15.70;;;-1.20;90.70;;;;;;5054331;28;20225;-58
2022/03/08 01:43:45;;;;;;;20.00;15.80;;;-1.20;90.70;;;;;;5054067;28;20228;-58
2022/03/08 01:46:12;;;;;;;20.07;14.63;;;-1.30;90.60;;;;;;5053532;28;20209;-58
2022/03/08 01:48:39;;;;;;;20.83;14.70;;;-1.30;90.90;;;;;;5054082;28;20688;-58
2022/03/08 01:51:06;;;;;;;23.27;14.60;;;-1.40;90.70;;;;;;5054454;28;20225;-59
2022/03/08 01:53:33;;;;;;;18.67;13.87;;;-1.40;90.90;;;;;;5053890;28;20217;-58
2022/03/08 01:56:00;;;;;;;20.97;14.60;;;-1.50;90.90;;;;;;5054110;28;20210;-58
2022/03/08 01:58:27;;;;;;;20.40;13.27;;;-1.60;91.10;;;;;;5054069;28;20206;-58
2022/03/08 02:00:55;;;;;;;20.47;14.37;;;-1.60;91.10;;;;;;5053833;28;20272;-58
2022/03/08 02:03:22;;;;;;;20.90;13.67;;;-1.60;91.30;;;;;;5053963;28;20300;-59
2022/03/08 02:05:49;;;;;;;20.30;13.90;;;-1.60;91.30;;;;;;5054048;28;20259;-59
2022/03/08 02:08:16;;;;;;;20.10;13.90;;;-1.60;91.30;;;;;;5053993;28;20205;-59
2022/03/08 02:10:42;;;;;;;19.80;13.50;;;-1.60;91.30;;;;;;5053954;28;20233;-58
2022/03/08 02:13:09;;;;;;;20.57;13.87;;;-1.60;91.30;;;;;;5054343;28;20213;-59
2022/03/08 02:15:36;;;;;;;17.83;13.03;;;-1.60;91.30;;;;;;5053888;28;20576;-59
2022/03/08 02:18:04;;;;;;;18.10;13.60;;;-1.50;91.30;;;;;;5053867;28;20214;-59
2022/03/08 02:20:32;;;;;;;20.63;13.40;;;-1.50;91.30;;;;;;5053722;28;20232;-59
2022/03/08 02:23:00;;;;;;;21.33;14.20;;;-1.50;91.30;;;;;;5053453;28;20205;-59
2022/03/08 02:25:27;;;;;;;20.10;13.90;;;-1.50;91.30;;;;;;5053530;28;20259;-58
2022/03/08 02:27:55;;;;;;;19.80;13.30;;;-1.50;91.30;;;;;;5053482;28;20202;-59
2022/03/08 02:30:23;;;;;;;19.30;13.23;;;-1.60;91.50;;;;;;5053434;28;20232;-58
2022/03/08 02:32:51;;;;;;;19.80;14.10;;;-1.70;91.50;;;;;;5053056;28;20209;-57
2022/03/08 02:35:20;;;;;;;18.20;12.53;;;-1.80;91.60;;;;;;5053364;28;20647;-58
2022/03/08 02:37:49;;;;;;;18.90;13.00;;;-1.80;91.60;;;;;;5053333;28;20725;-58
2022/03/08 02:40:19;;;;;;;21.23;13.63;;;-1.80;91.60;;;;;;5053133;28;20237;-58
2022/03/08 02:42:46;;;;;;;18.07;13.43;;;-1.90;91.50;;;;;;5053081;28;20205;-59
2022/03/08 02:45:14;;;;;;;18.83;13.57;;;-1.90;91.50;;;;;;5053139;28;20209;-58
2022/03/08 02:47:41;;;;;;;20.03;13.33;;;-1.90;91.50;;;;;;5053192;28;20209;-58
2022/03/08 02:50:10;;;;;;;22.10;15.00;;;-1.80;91.50;;;;;;5052946;28;20230;-59
2022/03/08 02:52:38;;;;;;;21.83;14.30;;;-1.90;91.60;;;;;;5052681;28;20622;-59
2022/03/08 02:55:06;;;;;;;18.63;13.63;;;-2.00;91.80;;;;;;5052850;28;20229;-58
2022/03/08 02:57:34;;;;;;;20.00;13.50;;;-2.10;92.10;;;;;;5053027;28;20220;-59
2022/03/08 03:00:01;;;;;;;19.10;13.57;;;-2.20;92.10;;;;;;5052839;28;20238;-59
2022/03/08 03:02:28;;;;;;;19.83;12.53;;;-2.30;92.20;;;;;;5052821;28;20217;-59
2022/03/08 03:04:54;;;;;;;18.83;13.17;;;-2.30;92.30;;;;;;5052723;28;20481;-59
2022/03/08 03:07:24;;;;;;;19.67;13.90;;;-2.30;92.40;;;;;;5052793;28;20264;-59
2022/03/08 03:09:51;;;;;;;19.93;13.23;;;-2.40;92.50;;;;;;5052847;28;20282;-59
2022/03/08 03:12:18;;;;;;;19.33;13.00;;;-2.50;92.60;;;;;;5052752;28;20267;-59
2022/03/08 03:14:46;;;;;;;19.23;13.37;;;-2.40;92.60;;;;;;5052245;28;20225;-58
2022/03/08 03:17:13;;;;;;;18.27;12.20;;;-2.40;92.60;;;;;;5052637;28;20213;-59
2022/03/08 03:19:39;;;;;;;16.63;12.17;;;-2.40;92.40;;;;;;5052323;28;20244;-58
2022/03/08 03:22:06;;;;;;;16.80;12.17;;;-2.30;92.20;;;;;;5052604;28;20633;-59
2022/03/08 03:24:33;;;;;;;17.47;11.47;;;-2.20;92.10;;;;;;5052504;28;20585;-57
2022/03/08 03:26:59;;;;;;;17.13;11.77;;;-2.20;92.10;;;;;;5052635;28;20209;-57
2022/03/08 03:29:26;;;;;;;16.83;11.43;;;-2.20;92.10;;;;;;5052799;28;20209;-58
2022/03/08 03:31:54;;;;;;;16.53;11.73;;;-2.10;92.20;;;;;;5052440;28;20690;-59
2022/03/08 03:34:21;;;;;;;15.73;11.07;;;-2.10;92.00;;;;;;5051836;28;20673;-58
2022/03/08 03:36:48;;;;;;;16.90;11.23;;;-2.10;92.00;;;;;;5052306;28;20704;-58
2022/03/08 03:39:14;;;;;;;16.10;11.17;;;-2.30;92.20;;;;;;5052324;28;20622;-58
2022/03/08 03:41:41;;;;;;;16.27;11.57;;;-2.20;92.20;;;;;;5052213;28;20221;-59
2022/03/08 03:44:08;;;;;;;14.77;10.77;;;-2.10;92.10;;;;;;5051901;28;20676;-59
2022/03/08 03:46:34;;;;;;;16.23;11.00;;;-2.10;92.00;;;;;;5052267;28;20232;-59
2022/03/08 03:49:03;;;;;;;14.03;10.27;;;-2.10;91.90;;;;;;5052054;28;20209;-59
2022/03/08 03:51:29;;;;;;;14.43;10.40;;;-2.00;91.80;;;;;;5051963;28;20650;-59
2022/03/08 03:53:56;;;;;;;14.33;9.80;;;-2.00;91.70;;;;;;5051976;28;20209;-59
2022/03/08 03:56:23;;;;;;;14.17;9.83;;;-1.90;91.60;;;;;;5052136;28;20220;-59
2022/03/08 03:58:49;;;;;;;12.70;9.93;;;-1.80;91.60;;;;;;5052044;28;20209;-60
2022/03/08 04:01:16;;;;;;;13.73;9.70;;;-1.70;91.40;;;;;;5051791;28;20234;-59
2022/03/08 04:03:43;;;;;;;14.77;10.03;;;-1.60;91.30;;;;;;5051804;28;20244;-59
2022/03/08 04:06:11;;;;;;;13.87;10.50;;;-1.50;91.20;;;;;;5052057;28;20255;-59
2022/03/08 04:08:37;;;;;;;15.33;10.87;;;-1.50;91.00;;;;;;5052107;28;20205;-58
2022/03/08 04:11:05;;;;;;;14.17;10.83;;;-1.40;91.00;;;;;;5051159;28;20740;-58
2022/03/08 04:13:31;;;;;;;17.63;11.17;;;-1.40;91.00;;;;;;5051569;28;20217;-58
2022/03/08 04:15:58;;;;;;;14.90;10.87;;;-1.40;91.00;;;;;;5051626;28;20240;-59
2022/03/08 04:18:25;;;;;;;17.40;11.47;;;-1.40;91.00;;;;;;5052113;28;20295;-59
2022/03/08 04:20:51;;;;;;;15.40;10.57;;;-1.40;91.00;;;;;;5051812;28;20225;-59
2022/03/08 04:23:19;;;;;;;15.03;10.30;;;-1.40;90.90;;;;;;5051829;28;20210;-59
2022/03/08 04:25:46;;;;;;;16.40;10.97;;;-1.40;90.90;;;;;;5052041;28;20206;-58
2022/03/08 04:28:13;;;;;;;13.93;10.17;;;-1.40;90.90;;;;;;5052508;28;20205;-59
2022/03/08 04:30:39;;;;;;;15.83;11.00;;;-1.40;90.90;;;;;;5052044;28;20713;-58
2022/03/08 04:33:06;;;;;;;14.13;10.57;;;-1.50;90.90;;;;;;5052352;28;20202;-58
2022/03/08 04:35:33;;;;;;;17.47;11.90;;;-1.50;91.40;;;;;;5052104;28;20230;-58
2022/03/08 04:38:01;;;;;;;15.13;10.73;;;-1.50;91.10;;;;;;5051917;28;20216;-57
2022/03/08 04:40:29;;;;;;;16.37;11.37;;;-1.60;91.10;;;;;;5051835;28;20664;-58
2022/03/08 04:42:56;;;;;;;14.53;10.57;;;-1.60;91.10;;;;;;5051473;28;20205;-58
2022/03/08 04:45:23;;;;;;;15.73;10.37;;;-1.60;91.10;;;;;;5052243;28;20224;-57
2022/03/08 04:47:50;;;;;;;19.50;10.57;;;-1.50;91.20;;;;;;5051896;28;20202;-58
2022/03/08 04:50:17;;;;;;;14.63;9.93;;;-1.50;91.20;;;;;;5051811;28;20221;-58
2022/03/08 04:52:45;;;;;;;16.87;11.37;;;-1.60;91.20;;;;;;5051797;28;20220;-58
2022/03/08 04:55:12;;;;;;;17.47;10.63;;;-1.60;91.10;;;;;;5051567;28;20218;-58
2022/03/08 04:57:40;;;;;;;19.43;12.77;;;-1.50;91.10;;;;;;5051570;28;20210;-58
2022/03/08 05:00:11;;;;;;;16.87;11.73;;;-1.50;91.00;;;;;;5051693;28;20242;-58
2022/03/08 05:02:38;;;;;;;13.90;9.93;;;-1.50;91.00;;;;;;5051521;28;20215;-58
2022/03/08 05:05:05;;;;;;;12.63;9.30;;;-1.50;91.00;;;;;;5051210;28;20232;-58
2022/03/08 05:07:32;;;;;;;16.00;10.10;;;-1.50;91.00;;;;;;5051471;28;20292;-58
2022/03/08 05:09:59;;;;;;;13.90;9.03;;;-1.50;90.80;;;;;;5051253;28;20230;-58
2022/03/08 05:12:26;;;;;;;25.07;14.53;;;-1.50;90.80;;;;;;5051535;28;20411;-59
2022/03/08 05:14:54;;;;;;;19.30;10.00;;;-1.50;90.80;;;;;;5051294;28;20763;-59
2022/03/08 05:17:20;;;;;;;15.93;9.47;;;-1.50;90.80;;;;;;5051243;28;20206;-58
2022/03/08 05:19:47;;;;;;;13.30;10.03;;;-1.50;90.80;;;;;;5051207;28;20221;-58
2022/03/08 05:22:14;;;;;;;15.10;9.30;;;-1.50;91.00;;;;;;5052793;28;20685;-58
2022/03/08 05:24:41;;;;;;;13.60;9.87;;;-1.60;91.00;;;;;;5055116;28;20267;-58
2022/03/08 05:27:08;;;;;;;13.80;9.57;;;-1.60;91.10;;;;;;5055130;28;20210;-58
2022/03/08 05:29:35;;;;;;;14.90;10.43;;;-1.60;91.10;;;;;;5054609;28;20209;-58
2022/03/08 05:32:04;;;;;;;17.50;11.13;;;-1.60;91.20;;;;;;5054832;28;20205;-58
2022/03/08 05:34:31;;;;;;;14.30;10.33;;;-1.60;91.40;;;;;;5054324;28;20209;-58
2022/03/08 05:36:57;;;;;;;14.53;10.27;;;-1.60;91.60;;;;;;5054614;28;20232;-58
2022/03/08 05:39:24;;;;;;;13.10;9.90;;;-1.70;91.80;;;;;;5054350;28;20206;-58
2022/03/08 05:41:51;;;;;;;15.67;10.60;;;-1.70;92.00;;;;;;5054359;28;20611;-58
2022/03/08 05:44:18;;;;;;;17.73;11.37;;;-1.70;92.00;;;;;;5054309;28;20209;-58
2022/03/08 05:46:45;;;;;;;20.27;11.53;;;-1.70;92.00;;;;;;5054363;28;20280;-58
2022/03/08 05:49:13;;;;;;;17.30;11.97;;;-1.70;92.00;;;;;;5054251;28;20230;-58
2022/03/08 05:51:40;;;;;;;16.60;11.37;;;-1.70;92.00;;;;;;5054145;28;20225;-58
2022/03/08 05:54:06;;;;;;;15.33;11.30;;;-1.60;92.10;;;;;;5054023;28;20964;-58
2022/03/08 05:56:33;;;;;;;15.90;11.37;;;-1.60;92.20;;;;;;5054379;28;20661;-58
2022/03/08 05:59:00;;;;;;;15.93;11.43;;;-1.60;92.10;;;;;;5054135;28;20201;-58
2022/03/08 06:01:26;;;;;;;18.27;12.33;;;-1.60;92.10;;;;;;5063122;22;20705;-59
2022/03/08 06:03:53;;;;;;;15.73;11.23;;;-1.50;92.00;;;;;;5033726;28;20229;-58
2022/03/08 06:06:21;;;;;;;18.00;11.33;;;-1.40;91.90;;;;;;5033909;28;20205;-58
2022/03/08 06:08:49;;;;;;;17.97;10.80;;;-1.40;91.70;;;;;;5034043;28;20673;-58
2022/03/08 06:11:16;;;;;;;17.37;11.03;;;-1.30;91.60;;;;;;5033735;28;20705;-58
2022/03/08 06:13:43;;;;;;;19.23;10.90;;;-1.30;91.40;;;;;;5033576;28;20224;-58
2022/03/08 06:16:10;;;;;;;18.37;12.63;;;-1.30;91.40;;;;;;5033951;28;20229;-58
2022/03/08 06:18:37;;;;;;;15.70;10.80;;;-1.20;91.30;;;;;;5034016;28;20234;-59
2022/03/08 06:21:04;;;;;;;15.20;10.87;;;-1.10;91.30;;;;;;5033555;28;20230;-58
2022/03/08 06:23:32;;;;;;;15.53;10.27;;;-1.10;91.10;;;;;;5033683;28;20272;-58
2022/03/08 06:25:58;;;;;;;16.33;10.03;;;-1.00;91.10;;;;;;5033836;28;20217;-59
2022/03/08 06:28:25;;;;;;;13.33;9.27;;;-1.00;90.90;;;;;;5033485;28;20213;-58
2022/03/08 06:30:52;;;;;;;15.90;10.23;;;-1.00;90.90;;;;;;5033525;28;20752;-58
2022/03/08 06:33:18;;;;;;;14.57;9.60;;;-0.90;90.90;;;;;;5032575;28;20260;-57
2022/03/08 06:35:45;;;;;;;17.73;12.17;;;-0.90;91.30;;;;;;5033594;28;20234;-58
2022/03/08 06:38:12;;;;;;;19.10;13.27;;;-0.80;91.30;;;;;;5033319;28;20209;-58
2022/03/08 06:40:40;;;;;;;18.60;11.97;;;-0.70;91.20;;;;;;5033275;28;20266;-57
2022/03/08 06:43:06;;;;;;;14.57;10.07;;;-0.30;91.80;;;;;;5032999;28;20214;-58
2022/03/08 06:45:33;;;;;;;14.57;9.63;;;0.70;91.40;;;;;;5033199;28;20206;-58
2022/03/08 06:48:00;;;;;;;14.57;8.93;;;2.10;90.50;;;;;;5033097;28;20233;-58
2022/03/08 06:50:26;;;;;;;13.93;9.20;;;3.20;85.50;;;;;;5033161;28;20226;-58
2022/03/08 06:52:53;;;;;;;13.23;8.80;;;4.50;84.30;;;;;;5033049;28;20582;-58
2022/03/08 06:55:20;;;;;;;14.37;8.43;;;5.70;78.80;;;;;;5032798;28;20221;-58
2022/03/08 06:57:48;;;;;;;11.40;7.87;;;6.80;76.20;;;;;;5032772;28;20210;-58
2022/03/08 07:00:16;;;;;;;12.67;7.73;;;7.80;71.10;;;;;;5032892;28;20249;-58
2022/03/08 07:02:43;;;;;;;10.90;6.67;;;8.50;68.20;;;;;;5032749;28;20596;-58
2022/03/08 07:05:10;;;;;;;10.77;7.30;;;9.10;66.20;;;;;;5032713;28;20209;-58
2022/03/08 07:07:37;;;;;;;10.57;6.73;;;9.80;63.10;;;;;;5032911;28;20202;-58
2022/03/08 07:10:05;;;;;;;8.50;6.50;;;10.50;61.20;;;;;;5032494;28;20229;-58
2022/03/08 07:12:32;;;;;;;9.00;7.13;;;11.10;58.90;;;;;;5032498;28;20210;-58
2022/03/08 07:15:00;;;;;;;11.33;7.03;;;11.80;56.70;;;;;;5032343;28;20585;-58
2022/03/08 07:17:27;;;;;;;9.23;6.50;;;12.20;55.60;;;;;;5032596;28;20209;-58
2022/03/08 07:19:53;;;;;;;10.20;6.73;;;12.60;54.30;;;;;;5032695;28;20249;-58
2022/03/08 07:22:20;;;;;;;9.20;7.17;;;12.70;54.90;;;;;;5032550;28;20229;-58
2022/03/08 07:24:47;;;;;;;7.67;6.33;;;13.20;54.50;;;;;;5032246;28;20233;-58
2022/03/08 07:27:13;;;;;;;7.77;5.97;;;13.70;52.60;;;;;;5032323;28;20268;-58
2022/03/08 07:29:40;;;;;;;7.30;6.30;;;14.10;51.80;;;;;;5032456;28;20625;-58
2022/03/08 07:32:08;;;;;;;8.70;6.37;;;14.60;51.20;;;;;;5032896;28;20263;-58
2022/03/08 07:34:35;;;;;;;6.70;6.03;;;15.10;50.10;;;;;;5032202;28;20214;-59
2022/03/08 07:37:02;;;;;;;15.10;10.23;;;15.50;49.90;;;;;;5032155;28;20244;-56
2022/03/08 07:39:29;;;;;;;6.93;5.80;;;15.90;49.00;;;;;;5032338;28;20214;-56
2022/03/08 07:41:56;;;;;;;7.03;6.03;;;16.10;47.70;;;;;;5032127;28;20225;-56
2022/03/08 07:44:22;;;;;;;7.90;6.27;;;16.10;47.50;;;;;;5031267;28;20202;-56
2022/03/08 07:46:49;;;;;;;6.78;5.65;;;16.30;47.40;;;;;;5032268;28;20202;-57
2022/03/08 07:49:17;;;;;;;6.80;6.00;;;16.30;47.40;;;;;;5032232;28;20213;-55
2022/03/08 07:51:44;;;;;;;6.00;5.40;;;16.10;46.80;;;;;;5032079;28;20227;-56
2022/03/08 07:54:10;;;;;;;7.23;5.83;;;15.50;46.50;;;;;;5031952;28;20256;-57
2022/03/08 07:56:37;;;;;;;8.97;6.30;;;14.60;48.50;;;;;;5031921;28;20659;-59
2022/03/08 07:59:04;;;;;;;6.97;5.83;;;13.50;48.80;;;;;;5031875;28;20206;-59
2022/03/08 08:01:30;;;;;;;8.30;5.70;;;12.60;50.20;;;;;;5032454;28;20230;-57
2022/03/08 08:03:57;;;;;;;8.80;6.73;;;11.70;51.80;;;;;;5033036;28;20252;-56
2022/03/08 08:06:25;;;;;;;8.00;5.93;;;10.80;52.40;;;;;;5032636;28;20217;-58
2022/03/08 08:08:52;;;;;;;6.73;6.03;;;9.90;54.80;;;;;;5032006;28;20220;-57
2022/03/08 08:11:19;;;;;;;8.73;5.83;;;9.20;56.30;;;;;;5031575;28;20237;-57
2022/03/08 08:13:48;;;;;;;8.87;6.57;;;8.40;57.80;;;;;;5031783;28;20207;-58
2022/03/08 08:16:14;;;;;;;8.50;6.43;;;7.70;59.60;;;;;;5031437;28;20717;-56
2022/03/08 08:18:41;;;;;;;11.43;5.73;;;7.20;61.20;;;;;;5031638;28;20253;-57
2022/03/08 08:21:08;;;;;;;10.77;6.33;;;6.80;62.30;;;;;;5031651;28;20288;-57
2022/03/08 08:23:36;;;;;;;10.00;6.47;;;6.60;62.90;;;;;;5031632;28;20214;-56
2022/03/08 08:26:03;;;;;;;8.63;6.10;;;6.40;63.80;;;;;;5031538;28;20207;-57
2022/03/08 08:28:29;;;;;;;7.50;5.77;;;6.40;64.20;;;;;;5031971;28;20597;-58
2022/03/08 08:30:56;;;;;;;9.30;6.03;;;6.40;65.00;;;;;;5031899;28;20222;-57
2022/03/08 08:33:23;;;;;;;7.37;5.70;;;6.20;65.90;;;;;;5031407;28;20678;-57
2022/03/08 08:35:50;;;;;;;6.87;5.63;;;6.20;66.30;;;;;;5032066;28;20230;-57
2022/03/08 08:38:17;;;;;;;8.37;6.13;;;6.10;66.70;;;;;;5033390;28;20217;-57
2022/03/08 08:40:45;;;;;;;10.10;5.90;;;6.10;67.20;;;;;;5032871;28;20287;-57
2022/03/08 08:43:12;;;;;;;6.90;5.87;;;6.00;66.80;;;;;;5032999;28;20264;-57
2022/03/08 08:45:39;;;;;;;7.67;5.50;;;6.10;67.10;;;;;;5032470;28;20203;-57
2022/03/08 08:48:06;;;;;;;6.57;5.53;;;6.00;67.80;;;;;;5031750;28;20305;-57
2022/03/08 08:50:33;;;;;;;8.50;5.30;;;6.00;67.70;;;;;;5031330;28;20232;-57
2022/03/08 08:53:00;;;;;;;6.83;5.07;;;6.00;67.50;;;;;;5031226;28;20212;-58
2022/03/08 08:55:27;;;;;;;6.77;4.77;;;6.00;68.00;;;;;;5031119;28;20260;-58
2022/03/08 08:57:55;;;;;;;6.10;4.63;;;6.00;68.50;;;;;;5035295;28;20209;-58
2022/03/08 09:00:22;;;;;;;5.63;4.50;;;6.00;66.90;;;;;;5035070;28;20253;-56
2022/03/08 09:02:48;;;;;;;5.73;4.73;;;6.00;67.50;;;;;;5034965;28;20232;-57
2022/03/08 09:05:15;;;;;;;6.63;4.67;;;5.90;67.70;;;;;;5034687;28;20257;-58
2022/03/08 09:07:42;;;;;;;6.33;4.20;;;5.90;67.90;;;;;;5034586;28;20598;-57
2022/03/08 09:10:09;;;;;;;5.63;4.17;;;5.90;67.90;;;;;;5034709;28;20646;-57
2022/03/08 09:12:36;;;;;;;7.53;3.70;;;6.00;66.60;;;;;;5034727;28;20233;-56
2022/03/08 09:15:05;;;;;;;5.47;3.67;;;6.20;65.50;;;;;;5034745;28;20206;-57
2022/03/08 09:17:32;;;;;;;10.03;4.03;;;6.30;64.50;;;;;;5035102;28;20284;-56
2022/03/08 09:19:59;;;;;;;5.47;4.25;;;6.30;64.90;;;;;;5031118;28;20438;-58
2022/03/08 09:22:25;;;;;;;5.53;4.23;;;6.50;65.10;;;;;;5034594;28;20207;-62
2022/03/08 09:24:52;;;;;;;6.73;4.60;;;6.70;65.00;;;;;;5034443;28;20206;-58
2022/03/08 09:27:19;;;;;;;4.80;4.00;;;6.90;64.70;;;;;;5034502;28;20206;-58
2022/03/08 09:29:45;;;;;;;4.73;3.87;;;6.90;63.80;;;;;;5034091;28;20221;-58
2022/03/08 09:32:14;;;;;;;6.43;3.67;;;6.70;63.90;;;;;;5034257;28;20202;-57
2022/03/08 09:34:40;;;;;;;5.07;3.90;;;6.70;63.10;;;;;;5033942;28;20206;-58
2022/03/08 09:37:07;;;;;;;4.57;3.80;;;6.60;63.10;;;;;;5034131;28;20645;-57
2022/03/08 09:39:35;;;;;;;4.97;3.47;;;6.60;63.60;;;;;;5034401;28;20206;-57
2022/03/08 09:42:02;;;;;;;4.23;3.30;;;6.70;63.10;;;;;;5034439;28;20210;-58
2022/03/08 09:44:30;;;;;;;6.20;3.63;;;6.70;62.40;;;;;;5034278;28;20206;-57
2022/03/08 09:46:56;;;;;;;6.10;3.43;;;6.70;62.10;;;;;;5034256;28;20665;-63
2022/03/08 09:49:25;;;;;;;4.80;3.67;;;6.60;61.60;;;;;;5033740;28;20206;-58
2022/03/08 09:51:52;;;;;;;7.13;3.73;;;6.60;61.70;;;;;;5034204;28;20226;-58
2022/03/08 09:54:19;;;;;;;4.67;3.67;;;6.70;61.90;;;;;;5034295;28;20218;-58
2022/03/08 09:56:46;;;;;;;6.10;3.93;;;6.90;61.60;;;;;;5033927;28;20759;-58
2022/03/08 09:59:15;;;;;;;6.73;3.60;;;7.00;61.10;;;;;;5034022;28;20657;-56
2022/03/08 10:01:43;;;;;;;5.37;3.47;;;7.10;60.60;;;;;;5033722;28;20324;-58
2022/03/08 10:04:09;;;;;;;4.77;3.77;;;7.30;60.90;;;;;;5033693;28;20210;-58
2022/03/08 10:06:43;;;;;;;3.80;3.40;;;7.50;60.20;;;;;;5033974;28;20756;-57
2022/03/08 10:09:17;;;;;;;5.43;4.20;;;7.70;60.00;;;;;;5033014;28;20210;-58
2022/03/08 10:11:45;;;;;;;5.77;3.63;;;7.80;60.40;;;;;;5033604;28;20755;-58
2022/03/08 10:14:14;;;;;;;4.17;3.67;;;7.90;60.00;;;;;;5033276;28;20592;-58
2022/03/08 10:16:45;;;;;;;4.60;3.63;;;8.10;59.60;;;;;;5033494;28;20226;-58
2022/03/08 10:19:13;;;;;;;5.47;3.33;;;8.10;58.70;;;;;;5033783;28;20221;-61
2022/03/08 10:21:43;;;;;;;6.40;3.80;;;8.10;58.70;;;;;;5033499;28;20233;-58
2022/03/08 10:24:15;;;;;;;7.47;3.90;;;8.10;58.30;;;;;;5033475;28;20234;-57
2022/03/08 10:26:50;;;;;;;7.47;4.00;;;8.20;58.70;;;;;;5033154;28;20202;-58
2022/03/08 10:29:26;;;;;;;5.37;3.70;;;8.30;59.20;;;;;;5033622;28;20216;-58
2022/03/08 10:32:05;;;;;;;6.07;3.80;;;8.30;57.60;;;;;;5033024;28;20304;-58
2022/03/08 10:34:32;;;;;;;5.43;3.13;;;8.30;57.50;;;;;;5033081;28;20213;-58
2022/03/08 10:37:09;;;;;;;6.83;3.70;;;8.30;57.10;;;;;;5033122;28;20233;-58
2022/03/08 10:39:49;;;;;;;4.43;3.77;;;8.40;57.80;;;;;;5033327;28;20301;-58
2022/03/08 10:42:20;;;;;;;4.20;3.37;;;8.40;57.90;;;;;;5033020;28;20297;-58
2022/03/08 10:44:48;;;;;;;6.13;3.73;;;8.40;57.20;;;;;;5032821;28;20297;-58
2022/03/08 10:47:16;;;;;;;5.43;3.73;;;8.40;56.80;;;;;;5032762;28;20500;-58
2022/03/08 10:49:51;;;;;;;5.90;3.47;;;8.40;55.90;;;;;;5032556;28;20202;-58
2022/03/08 10:52:27;;;;;;;4.50;3.50;;;8.30;55.50;;;;;;5032999;28;20213;-59
2022/03/08 10:54:54;;;;;;;4.47;3.10;;;8.30;55.80;;;;;;5032722;28;20666;-59
2022/03/08 10:57:20;;;;;;;6.37;3.50;;;8.40;55.40;;;;;;5032512;28;20230;-58
2022/03/08 10:59:54;;;;;;;5.03;3.10;;;8.50;55.20;;;;;;5032475;28;20260;-58
2022/03/08 11:02:22;;;;;;;4.57;3.47;;;8.40;55.80;;;;;;5032606;28;20259;-60
2022/03/08 11:04:49;;;;;;;4.73;3.53;;;8.40;55.00;;;;;;5032610;28;20301;-63
2022/03/08 11:07:16;;;;;;;4.63;3.57;;;8.40;55.20;;;;;;5032637;28;20205;-62
2022/03/08 11:09:46;;;;;;;6.93;3.43;;;8.50;54.90;;;;;;5032510;28;20213;-63
2022/03/08 11:12:13;;;;;;;3.93;2.90;;;8.60;54.30;;;;;;5032595;28;20211;-63
2022/03/08 11:14:40;;;;;;;5.97;4.47;;;8.70;54.40;;;;;;5032326;28;20221;-62
2022/03/08 11:17:07;;;;;;;5.23;3.70;;;8.80;54.80;;;;;;5032562;28;20237;-62
2022/03/08 11:19:33;;;;;;;5.50;3.50;;;9.00;54.60;;;;;;5032557;28;20214;-62
2022/03/08 11:22:01;;;;;;;4.33;3.33;;;9.20;54.20;;;;;;5032915;28;20237;-61
2022/03/08 11:24:29;;;;;;;5.70;3.50;;;9.30;53.70;;;;;;5032620;28;20587;-61
2022/03/08 11:26:58;;;;;;;5.30;3.33;;;9.30;52.80;;;;;;5032276;28;20670;-60
2022/03/08 11:29:26;;;;;;;4.57;3.30;;;9.30;53.40;;;;;;5032627;28;20617;-61
2022/03/08 11:31:55;;;;;;;6.93;3.17;;;9.40;52.80;;;;;;5032033;28;20317;-63
2022/03/08 11:34:27;;;;;;;4.77;3.40;;;9.50;52.50;;;;;;5032086;28;20202;-61
2022/03/08 11:37:00;;;;;;;4.57;2.93;;;9.50;52.90;;;;;;5032307;28;20230;-60
2022/03/08 11:39:28;;;;;;;7.07;3.50;;;9.60;52.90;;;;;;5032196;28;20217;-63
2022/03/08 11:41:58;;;;;;;4.67;2.87;;;9.80;52.60;;;;;;5031768;28;20230;-60
2022/03/08 11:44:31;;;;;;;9.30;3.70;;;10.00;51.40;;;;;;5032028;28;20213;-61
2022/03/08 11:47:11;;;;;;;4.17;2.93;;;10.20;50.90;;;;;;5031792;28;20693;-59
2022/03/08 11:49:52;;;;;;;4.00;3.10;;;10.30;50.50;;;;;;5031888;28;20249;-62
2022/03/08 11:52:21;;;;;;;3.70;3.10;;;10.20;51.30;;;;;;5031731;28;20675;-62
2022/03/08 11:54:56;;;;;;;3.67;3.00;;;10.00;51.50;;;;;;5031685;28;20666;-60
2022/03/08 11:57:56;;;;;;;8.10;3.60;;;10.10;52.20;;;;;;5031451;28;20697;-62
2022/03/08 12:00:26;;;;;;;4.63;3.40;;;10.30;52.10;;;;;;5032181;28;20234;-62
2022/03/08 12:02:55;;;;;;;5.77;3.13;;;10.40;51.50;;;;;;5032178;28;20257;-61
2022/03/08 12:05:46;;;;;;;3.40;3.00;;;10.50;51.50;;;;;;5031865;28;20203;-58
2022/03/08 12:08:42;;;;;;;5.80;3.50;;;10.50;51.50;;;;;;5031788;28;20202;-59
2022/03/08 12:11:16;;;;;;;4.63;3.27;;;10.60;51.80;;;;;;5031597;28;20253;-60
2022/03/08 12:13:47;;;;;;;4.77;3.30;;;10.70;51.40;;;;;;5031450;28;20205;-61
2022/03/08 12:16:15;;;;;;;5.87;3.20;;;10.50;51.60;;;;;;5032097;28;20213;-61
2022/03/08 12:18:43;;;;;;;4.40;3.40;;;10.50;52.10;;;;;;5031384;28;20321;-57
2022/03/08 12:21:32;;;;;;;4.50;3.50;;;10.50;51.50;;;;;;5031588;28;20364;-57
2022/03/08 12:24:01;;;;;;;4.10;3.27;;;10.60;51.00;;;;;;5031594;28;20260;-58
2022/03/08 12:26:29;;;;;;;5.97;3.67;;;10.70;50.90;;;;;;5031753;28;20206;-58
2022/03/08 12:29:07;;;;;;;6.23;3.73;;;10.70;50.90;;;;;;5031611;28;20210;-61
2022/03/08 12:31:34;;;;;;;5.13;3.30;;;10.70;50.50;;;;;;5033536;28;20229;-56
2022/03/08 12:34:01;;;;;;;8.53;3.40;;;10.80;50.90;;;;;;5035050;28;20267;-58
2022/03/08 12:36:28;;;;;;;4.67;3.50;;;10.80;50.10;;;;;;5035530;28;20678;-55
2022/03/08 12:38:55;;;;;;;5.23;3.40;;;10.80;49.90;;;;;;5035422;28;20206;-54
2022/03/08 12:41:25;;;;;;;4.20;3.33;;;10.80;50.20;;;;;;5035381;28;20337;-55